< < Back
Terminal Aerodrome Forecast


Current Version              Previous Versions:   1  2  3  4  5  6  7  8  9  

Terminal Aerodrome Forecast

267
FTUS42 KFFC 292333
TAFCSG
TAF
KCSG 292333Z 3000/3024 30008KT P6SM FEW060 SCT150
     FM300600 32004KT P6SM SKC
     FM301600 31008KT P6SM FEW040
     FM302000 32011KT P6SM SCT250=



Latest METAR

366
SAUS70 KWBC 310400
MTRCSG
METAR KCSG 310351Z AUTO 00000KT 10SM CLR 24/18 A2994 RMK AO2 SLP132
T02390183


USA.gov is the U.S. government's official web portal to all federal, state and local government web resources and services.